createdAt,value
2019-04-28T00:02:20.542Z,16.50
2019-04-28T00:04:48.836Z,18.87
2019-04-28T00:07:15.907Z,17.73
2019-04-28T00:09:42.979Z,19.80
2019-04-28T00:12:11.458Z,16.07
2019-04-28T00:14:41.829Z,17.70
2019-04-28T00:17:10.958Z,16.63
2019-04-28T00:19:38.170Z,15.90
2019-04-28T00:22:13.853Z,17.07
2019-04-28T00:24:51.532Z,20.40
2019-04-28T00:27:21.693Z,16.70
2019-04-28T00:29:48.894Z,19.93
2019-04-28T00:32:16.071Z,18.23
2019-04-28T00:34:43.146Z,23.47
2019-04-28T00:37:25.163Z,20.10
2019-04-28T00:39:52.231Z,28.33
2019-04-28T00:42:19.299Z,18.03
2019-04-28T00:44:46.410Z,19.73
2019-04-28T00:47:13.480Z,19.93
2019-04-28T00:49:46.230Z,18.67
2019-04-28T00:52:14.179Z,17.67
2019-04-28T00:54:42.073Z,18.73
2019-04-28T00:57:11.195Z,22.43
2019-04-28T00:59:50.882Z,20.63
2019-04-28T01:02:14.202Z,15.40
2019-04-28T01:04:41.389Z,19.97
2019-04-28T01:07:08.451Z,17.47
2019-04-28T01:09:35.526Z,25.83
2019-04-28T01:12:03.112Z,21.40
2019-04-28T01:14:30.977Z,19.37
2019-04-28T01:17:23.654Z,17.27
2019-04-28T01:19:52.359Z,16.50
2019-04-28T01:22:20.185Z,19.13
2019-04-28T01:24:47.316Z,22.50
2019-04-28T01:27:50.546Z,25.33
2019-04-28T01:30:50.062Z,19.50
2019-04-28T01:33:54.944Z,23.23
2019-04-28T01:36:22.018Z,17.07
2019-04-28T01:38:50.082Z,19.33
2019-04-28T01:41:17.258Z,17.83
2019-04-28T01:43:44.335Z,18.03
2019-04-28T01:46:11.407Z,19.23
2019-04-28T01:48:39.785Z,18.40
2019-04-28T01:51:06.987Z,18.00
2019-04-28T01:53:34.074Z,19.80
2019-04-28T01:56:02.268Z,16.87
2019-04-28T01:58:29.772Z,20.80
2019-04-28T02:00:56.923Z,17.17
2019-04-28T02:03:23.995Z,17.40
2019-04-28T02:05:51.166Z,15.77
2019-04-28T02:08:20.115Z,17.03
2019-04-28T02:10:47.459Z,14.63
2019-04-28T02:13:14.562Z,19.17
2019-04-28T02:15:41.646Z,17.10
2019-04-28T02:18:09.963Z,17.90
2019-04-28T02:20:39.767Z,21.50
2019-04-28T02:23:21.187Z,18.47
2019-04-28T02:25:49.765Z,15.93
2019-04-28T02:28:16.951Z,14.87
2019-04-28T02:30:49.377Z,18.90
2019-04-28T02:33:13.060Z,19.63
2019-04-28T02:35:41.802Z,18.17
2019-04-28T02:38:11.383Z,17.07
2019-04-28T02:40:40.582Z,13.53
2019-04-28T02:43:07.163Z,16.27
2019-04-28T02:45:36.021Z,16.17
2019-04-28T02:48:04.999Z,16.83
2019-04-28T02:50:47.792Z,17.53
2019-04-28T02:53:23.159Z,16.37
2019-04-28T02:55:51.421Z,15.57
2019-04-28T02:58:22.122Z,13.77
2019-04-28T03:01:02.579Z,16.40
2019-04-28T03:03:16.559Z,14.93
2019-04-28T03:05:43.634Z,15.47
2019-04-28T03:08:11.277Z,16.97
2019-04-28T03:10:41.041Z,16.57
2019-04-28T03:13:07.493Z,14.30
2019-04-28T03:15:34.551Z,14.57
2019-04-28T03:18:02.203Z,19.77
2019-04-28T03:20:30.573Z,13.60
2019-04-28T03:23:00.350Z,16.30
2019-04-28T03:25:46.742Z,14.27
2019-04-28T03:28:24.024Z,20.63
2019-04-28T03:31:06.579Z,16.07
2019-04-28T03:33:34.400Z,13.63
2019-04-28T03:36:03.717Z,17.10
2019-04-28T03:38:30.987Z,18.97
2019-04-28T03:41:00.776Z,15.90
2019-04-28T03:43:27.027Z,15.57
2019-04-28T03:46:02.757Z,16.20
2019-04-28T03:48:30.876Z,19.30
2019-04-28T03:50:57.590Z,13.10
2019-04-28T03:53:24.677Z,16.23
2019-04-28T03:55:51.741Z,14.70
2019-04-28T03:58:23.640Z,16.83
2019-04-28T04:00:50.427Z,13.67
2019-04-28T04:03:16.864Z,15.80
2019-04-28T04:05:45.731Z,13.97
2019-04-28T04:08:12.794Z,15.07
2019-04-28T04:11:02.532Z,20.77
2019-04-28T04:13:46.470Z,13.93
2019-04-28T04:16:33.883Z,19.33
2019-04-28T04:19:01.262Z,13.97
2019-04-28T04:21:30.835Z,23.80
2019-04-28T04:23:57.317Z,16.40
2019-04-28T04:26:24.404Z,14.17
2019-04-28T04:28:51.871Z,15.40
2019-04-28T04:31:20.028Z,16.00
2019-04-28T04:33:50.296Z,15.27
2019-04-28T04:36:16.368Z,15.63
2019-04-28T04:38:46.412Z,12.87
2019-04-28T04:41:12.414Z,15.57
2019-04-28T04:43:41.525Z,14.87
2019-04-28T04:46:17.928Z,16.23
2019-04-28T04:48:45.203Z,14.97
2019-04-28T04:51:12.492Z,14.23
2019-04-28T04:53:41.361Z,13.13
2019-04-28T04:56:10.491Z,14.33
2019-04-28T04:58:37.417Z,15.33
2019-04-28T05:01:12.589Z,18.30
2019-04-28T05:03:41.074Z,16.90
2019-04-28T05:06:29.726Z,18.47
2019-04-28T05:08:56.924Z,17.73
2019-04-28T05:11:23.986Z,16.17
2019-04-28T05:13:51.070Z,15.17
2019-04-28T05:16:19.754Z,15.17
2019-04-28T05:18:49.890Z,17.93
2019-04-28T05:21:17.099Z,12.40
2019-04-28T05:24:03.765Z,14.17
2019-04-28T05:26:30.839Z,16.97
2019-04-28T05:28:59.536Z,18.27
2019-04-28T05:31:26.706Z,13.83
2019-04-28T05:33:53.778Z,13.33
2019-04-28T05:36:21.143Z,16.70
2019-04-28T05:38:49.648Z,14.50
2019-04-28T05:41:16.794Z,16.17
2019-04-28T05:43:43.875Z,14.57
2019-04-28T05:46:10.957Z,13.87
2019-04-28T05:48:51.322Z,14.73
2019-04-28T05:51:19.980Z,16.03
2019-04-28T05:53:53.883Z,14.60
2019-04-28T05:56:39.778Z,14.73
2019-04-28T05:59:32.168Z,11.97
2019-04-28T06:02:06.891Z,14.57
2019-04-28T06:04:33.970Z,12.70
2019-04-28T06:07:07.639Z,11.63
2019-04-28T06:09:41.566Z,12.50
2019-04-28T06:12:10.894Z,12.47
2019-04-28T06:14:40.164Z,10.67
2019-04-28T06:17:06.997Z,8.90
2019-04-28T06:19:34.059Z,11.33
2019-04-28T06:22:01.672Z,14.97
2019-04-28T06:24:28.783Z,9.60
2019-04-28T06:26:55.849Z,20.17
2019-04-28T06:29:22.919Z,16.07
2019-04-28T06:31:49.975Z,11.13
2019-04-28T06:34:17.063Z,10.77
2019-04-28T06:36:44.142Z,16.10
2019-04-28T06:39:11.211Z,11.57
2019-04-28T06:41:38.291Z,11.77
2019-04-28T06:44:05.387Z,14.30
2019-04-28T06:46:32.471Z,7.93
2019-04-28T06:48:59.574Z,12.20
2019-04-28T06:51:26.662Z,9.30
2019-04-28T06:53:53.851Z,15.20
2019-04-28T06:56:20.940Z,9.87
2019-04-28T06:58:58.424Z,10.83
2019-04-28T07:01:16.986Z,12.10
2019-04-28T07:03:45.770Z,13.03
2019-04-28T07:06:12.833Z,11.67
2019-04-28T07:08:39.891Z,10.73
2019-04-28T07:11:06.984Z,10.40
2019-04-28T07:13:34.054Z,6.97
2019-04-28T07:16:01.145Z,7.53
2019-04-28T07:18:28.228Z,7.37
2019-04-28T07:21:04.080Z,10.17
2019-04-28T07:23:31.955Z,9.83
2019-04-28T07:25:59.027Z,16.30
2019-04-28T07:28:26.119Z,8.23
2019-04-28T07:30:53.340Z,13.37
2019-04-28T07:33:20.408Z,9.20
2019-04-28T07:35:47.534Z,8.10
2019-04-28T07:38:14.612Z,8.63
2019-04-28T07:40:41.773Z,9.57
2019-04-28T07:43:08.819Z,10.73
2019-04-28T07:45:35.901Z,12.33
2019-04-28T07:48:03.067Z,9.23
2019-04-28T07:50:30.191Z,5.93
2019-04-28T07:53:12.444Z,9.33
2019-04-28T07:55:42.423Z,10.77
2019-04-28T07:58:09.488Z,9.50
2019-04-28T08:00:36.558Z,11.20
2019-04-28T08:03:03.656Z,7.27
2019-04-28T08:05:30.742Z,7.67
2019-04-28T08:07:57.790Z,4.27
2019-04-28T08:10:24.864Z,9.07
2019-04-28T08:12:51.919Z,8.37
2019-04-28T08:15:18.995Z,7.70
2019-04-28T08:17:46.075Z,13.10
2019-04-28T08:20:13.551Z,7.63
2019-04-28T08:22:40.622Z,83.33
2019-04-28T08:25:10.902Z,11.10
2019-04-28T08:27:37.963Z,9.40
2019-04-28T08:30:05.483Z,9.37
2019-04-28T08:32:38.906Z,8.77
2019-04-28T08:35:06.005Z,9.53
2019-04-28T08:37:33.079Z,11.80
2019-04-28T08:40:00.164Z,8.40
2019-04-28T08:42:27.235Z,8.37
2019-04-28T08:44:54.310Z,7.37
2019-04-28T08:47:21.391Z,9.03
2019-04-28T08:49:48.453Z,11.50
2019-04-28T08:52:15.524Z,9.53
2019-04-28T08:54:42.595Z,10.93
2019-04-28T08:57:09.663Z,11.73
2019-04-28T08:59:36.945Z,9.73
2019-04-28T09:02:04.232Z,7.00
2019-04-28T09:04:31.353Z,6.23
2019-04-28T09:06:58.501Z,8.90
2019-04-28T09:09:25.558Z,5.93
2019-04-28T09:11:52.642Z,10.43
2019-04-28T09:14:19.714Z,7.83
2019-04-28T09:16:46.783Z,7.57
2019-04-28T09:19:13.887Z,7.20
2019-04-28T09:21:40.959Z,5.90
2019-04-28T09:24:08.023Z,11.80
2019-04-28T09:26:37.019Z,6.40
2019-04-28T09:29:04.123Z,9.13
2019-04-28T09:31:31.200Z,7.40
2019-04-28T09:33:58.279Z,14.23
2019-04-28T09:36:25.354Z,8.87
2019-04-28T09:38:52.854Z,6.77
2019-04-28T09:41:19.920Z,9.50
2019-04-28T09:43:58.663Z,11.50
2019-04-28T09:46:34.156Z,9.20
2019-04-28T09:49:02.332Z,20.63
2019-04-28T09:51:29.407Z,7.07
2019-04-28T09:53:56.495Z,4.30
2019-04-28T09:56:23.563Z,9.37
2019-04-28T09:58:50.934Z,5.40
2019-04-28T10:01:17.992Z,7.53
2019-04-28T10:03:45.056Z,8.07
2019-04-28T10:06:11.719Z,9.00
2019-04-28T10:08:38.899Z,8.83
2019-04-28T10:11:06.017Z,9.23
2019-04-28T10:13:33.170Z,9.90
2019-04-28T10:16:00.245Z,10.40
2019-04-28T10:18:27.310Z,8.13
2019-04-28T10:20:54.396Z,7.97
2019-04-28T10:23:21.458Z,8.67
2019-04-28T10:25:48.535Z,5.73
2019-04-28T10:28:15.612Z,7.13
2019-04-28T10:30:42.691Z,11.37
2019-04-28T10:33:09.762Z,7.30
2019-04-28T10:35:36.880Z,5.73
2019-04-28T10:38:04.218Z,8.50
2019-04-28T10:40:33.766Z,9.00
2019-04-28T10:43:00.943Z,4.37
2019-04-28T10:45:30.597Z,7.10
2019-04-28T10:48:11.651Z,18.47
2019-04-28T10:50:38.727Z,8.30
2019-04-28T10:53:05.800Z,6.20
2019-04-28T10:55:34.735Z,4.97
2019-04-28T10:58:01.817Z,10.87
2019-04-28T11:00:30.801Z,12.23
2019-04-28T11:02:57.886Z,5.77
2019-04-28T11:05:29.794Z,7.73
2019-04-28T11:09:09.134Z,10.27
2019-04-28T11:11:09.099Z,11.70
2019-04-28T11:13:33.691Z,10.83
2019-04-28T11:16:03.967Z,4.20
2019-04-28T11:18:31.107Z,8.97
2019-04-28T11:21:15.579Z,9.93
2019-04-28T11:23:42.657Z,7.07
2019-04-28T11:26:09.932Z,8.70
2019-04-28T11:28:43.842Z,6.53
2019-04-28T11:31:10.906Z,5.57
2019-04-28T11:33:54.568Z,3.27
2019-04-28T11:36:21.691Z,9.90
2019-04-28T11:38:48.759Z,6.03
2019-04-28T11:41:15.829Z,14.30
2019-04-28T11:43:42.899Z,6.97
2019-04-28T11:46:11.870Z,7.53
2019-04-28T11:48:57.335Z,4.80
2019-04-28T11:51:24.408Z,3.57
2019-04-28T11:53:51.562Z,6.73
2019-04-28T11:56:18.886Z,7.30
2019-04-28T11:58:45.956Z,8.30
2019-04-28T12:01:15.036Z,8.53
2019-04-28T12:03:43.913Z,7.70
2019-04-28T12:06:11.030Z,10.90
2019-04-28T12:08:38.088Z,12.33
2019-04-28T12:11:25.672Z,5.13
2019-04-28T12:14:15.382Z,6.87
2019-04-28T12:17:02.034Z,6.57
2019-04-28T12:19:47.739Z,5.70
2019-04-28T12:22:14.816Z,5.93
2019-04-28T12:24:41.923Z,4.57
2019-04-28T12:27:08.987Z,6.60
2019-04-28T12:29:36.063Z,5.73
2019-04-28T12:32:03.122Z,44.00
2019-04-28T12:34:30.196Z,11.33
2019-04-28T12:36:58.362Z,7.17
2019-04-28T12:39:26.535Z,7.43
2019-04-28T12:41:54.215Z,7.43
2019-04-28T12:44:21.283Z,7.40
2019-04-28T12:46:48.366Z,7.60
2019-04-28T12:49:23.871Z,21.53
2019-04-28T12:51:50.938Z,6.17
2019-04-28T12:54:19.933Z,9.30
2019-04-28T12:56:46.998Z,4.30
2019-04-28T12:59:19.643Z,5.73
2019-04-28T13:01:57.441Z,9.97
2019-04-28T13:04:31.833Z,14.13
2019-04-28T13:07:02.983Z,9.60
2019-04-28T13:09:30.354Z,8.40
2019-04-28T13:11:57.435Z,9.17
2019-04-28T13:14:24.499Z,5.30
2019-04-28T13:16:51.567Z,7.63
2019-04-28T13:19:18.639Z,8.90
2019-04-28T13:21:45.707Z,4.43
2019-04-28T13:24:12.852Z,5.93
2019-04-28T13:26:39.915Z,4.13
2019-04-28T13:29:07.019Z,9.37
2019-04-28T13:31:34.098Z,9.03
2019-04-28T13:34:01.771Z,6.70
2019-04-28T13:36:53.336Z,6.83
2019-04-28T13:39:47.138Z,8.43
2019-04-28T13:42:15.137Z,7.03
2019-04-28T13:45:03.781Z,7.37
2019-04-28T13:47:32.740Z,5.30
2019-04-28T13:50:19.399Z,5.73
2019-04-28T13:52:46.494Z,9.57
2019-04-28T13:55:36.524Z,5.93
2019-04-28T13:58:04.231Z,10.93
2019-04-28T14:00:49.197Z,6.47
2019-04-28T14:03:47.834Z,8.43
2019-04-28T14:06:27.497Z,9.03
2019-04-28T14:08:46.487Z,12.47
2019-04-28T14:11:13.577Z,9.17
2019-04-28T14:13:40.647Z,5.07
2019-04-28T14:16:07.724Z,12.70
2019-04-28T14:18:35.918Z,8.23
2019-04-28T14:21:03.016Z,7.27
2019-04-28T14:23:30.045Z,8.03
2019-04-28T14:25:57.115Z,5.87
2019-04-28T14:28:24.211Z,5.10
2019-04-28T14:30:51.279Z,4.87
2019-04-28T14:33:29.191Z,6.20
2019-04-28T14:35:59.335Z,5.40
2019-04-28T14:38:26.755Z,5.03
2019-04-28T14:40:54.946Z,3.77
2019-04-28T14:43:51.983Z,4.70
2019-04-28T14:46:47.362Z,5.47
2019-04-28T14:49:14.630Z,15.93
2019-04-28T14:51:41.794Z,4.60
2019-04-28T14:54:11.369Z,3.47
2019-04-28T14:56:38.573Z,4.67
2019-04-28T14:59:06.032Z,4.60
2019-04-28T15:02:04.811Z,2.90
2019-04-28T15:05:11.269Z,9.33
2019-04-28T15:07:46.681Z,5.93
2019-04-28T15:10:39.966Z,4.97
2019-04-28T15:13:07.328Z,2.77
2019-04-28T15:15:35.905Z,2.33
2019-04-28T15:18:03.072Z,7.27
2019-04-28T15:20:30.198Z,2.03
2019-04-28T15:22:57.248Z,4.33
2019-04-28T15:25:48.683Z,3.57
2019-04-28T15:28:13.253Z,3.10
2019-04-28T15:30:40.342Z,1.13
2019-04-28T15:33:07.590Z,1.13
2019-04-28T15:35:34.659Z,2.63
2019-04-28T15:38:04.028Z,2.73
2019-04-28T15:40:31.082Z,6.53
2019-04-28T15:42:58.320Z,2.73
2019-04-28T15:45:25.393Z,4.10
2019-04-28T15:47:52.468Z,0.77
2019-04-28T15:50:21.435Z,8.00
2019-04-28T15:52:48.490Z,5.03
2019-04-28T15:55:27.038Z,1.30
2019-04-28T15:57:54.262Z,2.67
2019-04-28T16:00:24.498Z,2.93
2019-04-28T16:02:51.560Z,5.93
2019-04-28T16:05:19.831Z,2.67
2019-04-28T16:07:46.894Z,0.90
2019-04-28T16:13:08.519Z,3.97
2019-04-28T16:15:35.594Z,3.83
2019-04-28T16:18:03.682Z,1.60
2019-04-28T16:20:30.817Z,3.37
2019-04-28T16:22:57.959Z,2.67
2019-04-28T16:25:25.060Z,2.53
2019-04-28T16:27:52.138Z,1.73
2019-04-28T16:30:19.218Z,25.63
2019-04-28T16:32:46.310Z,4.50
2019-04-28T16:35:13.384Z,3.10
2019-04-28T16:37:40.438Z,2.60
2019-04-28T16:40:09.615Z,3.27
2019-04-28T16:42:47.220Z,1.80
2019-04-28T16:45:19.940Z,2.40
2019-04-28T16:47:47.249Z,1.77
2019-04-28T16:50:26.526Z,3.03
2019-04-28T16:53:04.751Z,3.70
2019-04-28T16:55:39.374Z,5.50
2019-04-28T16:58:21.173Z,2.73
2019-04-28T17:01:12.282Z,3.77
2019-04-28T17:03:40.942Z,1.30
2019-04-28T17:06:11.223Z,3.23
2019-04-28T17:08:38.311Z,3.60
2019-04-28T17:11:05.510Z,3.93
2019-04-28T17:13:32.586Z,5.97
2019-04-28T17:16:02.439Z,2.40
2019-04-28T17:18:29.574Z,1.90
2019-04-28T17:20:56.737Z,2.20
2019-04-28T17:23:23.841Z,2.77
2019-04-28T17:25:50.906Z,3.50
2019-04-28T17:28:17.994Z,4.97
2019-04-28T17:30:45.118Z,6.67
2019-04-28T17:33:12.305Z,1.57
2019-04-28T17:35:48.270Z,9.50
2019-04-28T17:38:21.630Z,2.87
2019-04-28T17:40:52.887Z,1.77
2019-04-28T17:43:21.171Z,3.33
2019-04-28T17:45:48.267Z,2.30
2019-04-28T17:48:20.911Z,3.60
2019-04-28T17:50:48.012Z,6.80
2019-04-28T17:53:15.119Z,2.83
2019-04-28T17:55:42.266Z,1.90
2019-04-28T17:58:09.342Z,1.50
2019-04-28T18:01:11.495Z,2.27
2019-04-28T18:03:57.164Z,9.67
2019-04-28T18:06:24.953Z,3.00
2019-04-28T18:08:52.028Z,4.07
2019-04-28T18:11:19.092Z,7.30
2019-04-28T18:13:56.567Z,2.53
2019-04-28T18:16:48.327Z,3.73
2019-04-28T18:19:15.682Z,2.93
2019-04-28T18:21:43.860Z,3.03
2019-04-28T18:24:12.038Z,4.37
2019-04-28T18:26:39.123Z,3.50
2019-04-28T18:29:08.484Z,3.57
2019-04-28T18:31:47.447Z,3.40
2019-04-28T18:34:35.195Z,5.03
2019-04-28T18:37:25.344Z,2.00
2019-04-28T18:40:21.310Z,3.43
2019-04-28T18:42:53.998Z,4.13
2019-04-28T18:45:21.103Z,3.53
2019-04-28T18:47:48.187Z,3.97
2019-04-28T18:50:15.294Z,4.40
2019-04-28T18:52:42.391Z,2.77
2019-04-28T18:55:09.476Z,7.27
2019-04-28T18:57:36.547Z,3.83
2019-04-28T19:00:04.074Z,4.50
2019-04-28T19:02:43.700Z,7.10
2019-04-28T19:05:11.213Z,2.30
2019-04-28T19:08:07.170Z,5.73
2019-04-28T19:10:42.293Z,3.33
2019-04-28T19:13:13.575Z,2.03
2019-04-28T19:16:18.558Z,3.13
2019-04-28T19:18:46.488Z,2.23
2019-04-28T19:21:13.554Z,2.87
2019-04-28T19:23:40.623Z,3.03
2019-04-28T19:26:07.710Z,2.97
2019-04-28T19:28:34.784Z,2.53
2019-04-28T19:31:01.867Z,3.57
2019-04-28T19:33:28.959Z,1.83
2019-04-28T19:35:56.047Z,2.00
2019-04-28T19:38:23.119Z,5.70
2019-04-28T19:40:50.196Z,1.53
2019-04-28T19:43:17.269Z,3.03
2019-04-28T19:45:45.971Z,3.00
2019-04-28T19:48:13.091Z,3.50
2019-04-28T19:50:40.177Z,1.90
2019-04-28T19:53:07.255Z,2.50
2019-04-28T19:55:37.948Z,2.90
2019-04-28T19:58:20.894Z,6.80
2019-04-28T20:00:53.682Z,2.57
2019-04-28T20:03:20.755Z,2.37
2019-04-28T20:05:47.833Z,3.83
2019-04-28T20:08:14.906Z,2.80
2019-04-28T20:10:41.974Z,2.43
2019-04-28T20:13:09.069Z,4.27
2019-04-28T20:15:36.139Z,1.83
2019-04-28T20:18:03.208Z,2.90
2019-04-28T20:20:30.320Z,4.63
2019-04-28T20:22:57.386Z,2.37
2019-04-28T20:25:24.447Z,3.53
2019-04-28T20:27:51.531Z,2.53
2019-04-28T20:30:18.625Z,3.50
2019-04-28T20:32:46.130Z,2.57
2019-04-28T20:35:15.472Z,3.97
2019-04-28T20:37:48.571Z,4.07
2019-04-28T20:40:21.658Z,3.40
2019-04-28T20:42:57.712Z,2.70
2019-04-28T20:45:24.769Z,2.50
2019-04-28T20:47:51.852Z,6.20
2019-04-28T20:50:18.925Z,4.80
2019-04-28T20:52:45.988Z,4.13
2019-04-28T20:55:13.166Z,6.73
2019-04-28T20:57:40.247Z,2.63
2019-04-28T21:00:07.658Z,7.37
2019-04-28T21:02:34.722Z,3.27
2019-04-28T21:05:01.792Z,3.73
2019-04-28T21:07:28.863Z,3.93
2019-04-28T21:09:55.931Z,3.17
2019-04-28T21:12:23.022Z,2.77
2019-04-28T21:14:50.093Z,4.50
2019-04-28T21:17:17.178Z,5.23
2019-04-28T21:19:44.264Z,3.20
2019-04-28T21:22:13.229Z,5.77
2019-04-28T21:24:41.338Z,2.53
2019-04-28T21:27:08.410Z,4.67
2019-04-28T21:29:35.488Z,2.87
2019-04-28T21:32:02.567Z,2.73
2019-04-28T21:34:29.664Z,3.67
2019-04-28T21:36:56.722Z,5.30
2019-04-28T21:39:23.790Z,2.63
2019-04-28T21:41:50.854Z,3.20
2019-04-28T21:44:40.475Z,3.27
2019-04-28T21:47:21.284Z,4.60
2019-04-28T21:49:48.346Z,2.90
2019-04-28T21:52:15.427Z,2.80
2019-04-28T21:54:42.502Z,3.60
2019-04-28T21:57:09.665Z,3.33
2019-04-28T21:59:36.702Z,6.37
2019-04-28T22:02:03.792Z,3.87
2019-04-28T22:04:30.871Z,4.10
2019-04-28T22:06:57.950Z,5.93
2019-04-28T22:09:25.028Z,5.63
2019-04-28T22:11:53.304Z,4.63
2019-04-28T22:14:21.467Z,4.33
2019-04-28T22:16:48.541Z,1.33
2019-04-28T22:19:15.596Z,3.50
2019-04-28T22:21:42.686Z,5.67
2019-04-28T22:24:15.843Z,2.77
2019-04-28T22:26:50.305Z,4.90
2019-04-28T22:29:17.368Z,4.73
2019-04-28T22:31:44.834Z,2.37
2019-04-28T22:34:13.153Z,3.73
2019-04-28T22:36:40.265Z,7.87
2019-04-28T22:39:07.532Z,3.73
2019-04-28T22:41:34.631Z,3.17
2019-04-28T22:44:01.694Z,6.70
2019-04-28T22:46:28.763Z,4.77
2019-04-28T22:48:58.159Z,4.10
2019-04-28T22:51:25.239Z,3.70
2019-04-28T22:53:52.273Z,8.03
2019-04-28T22:56:38.836Z,4.10
2019-04-28T22:59:10.511Z,5.97
2019-04-28T23:01:46.674Z,3.70
2019-04-28T23:04:36.121Z,3.73
2019-04-28T23:07:03.176Z,3.10
2019-04-28T23:09:30.549Z,4.73
2019-04-28T23:11:57.634Z,4.23
2019-04-28T23:14:24.749Z,5.53
2019-04-28T23:16:52.018Z,2.80
2019-04-28T23:19:21.016Z,4.70
2019-04-28T23:21:54.246Z,6.07
2019-04-28T23:24:21.315Z,3.37
2019-04-28T23:26:48.375Z,7.63
2019-04-28T23:29:15.489Z,4.47
2019-04-28T23:31:42.519Z,4.23
2019-04-28T23:34:09.575Z,5.10
2019-04-28T23:36:36.635Z,3.70
2019-04-28T23:39:06.499Z,3.73
2019-04-28T23:41:44.825Z,4.43
2019-04-28T23:44:11.901Z,3.87
2019-04-28T23:46:55.992Z,2.77
2019-04-28T23:49:23.745Z,2.63
2019-04-28T23:51:59.891Z,3.50
2019-04-28T23:54:26.952Z,4.00
2019-04-28T23:56:55.798Z,5.83
2019-04-28T23:59:22.859Z,5.23
